Terminal Aerodrome Forecast
Issued by NWS

Home | Current Version | Previous Version | Text Only | Print | Product List | Glossary On
Versions: 1 2 3 4 5 6 7 8 9 10 11 12 13 14
178
FTUS41 KCAR 241903 AAA
TAFHUL
TAF AMD
KHUL 241903Z 2419/2518 24010G15KT P6SM FEW070 FEW110
     FM251300 19007KT P6SM BKN140
     FM251700 20009KT P6SM VCSH BKN030 OVC120=

USA.gov is the U.S. government's official web portal to all federal, state and local government web resources and services.